createdAt,value
2023-11-25T00:02:21.527Z,97745.47
2023-11-25T00:04:54.583Z,97749.16
2023-11-25T00:07:27.605Z,97749.31
2023-11-25T00:10:00.613Z,97750.50
2023-11-25T00:12:34.370Z,97761.94
2023-11-25T00:15:08.323Z,97754.94
2023-11-25T00:17:43.596Z,97753.16
2023-11-25T00:20:17.226Z,97747.88
2023-11-25T00:22:50.784Z,97752.22
2023-11-25T00:25:25.692Z,97756.56
2023-11-25T00:27:59.436Z,97752.06
2023-11-25T00:30:32.462Z,97749.31
2023-11-25T00:33:07.008Z,97747.53
2023-11-25T00:35:39.987Z,97751.78
2023-11-25T00:38:13.216Z,97744.63
2023-11-25T00:40:48.352Z,97744.63
2023-11-25T00:43:21.430Z,97755.09
2023-11-25T00:45:54.455Z,97749.66
2023-11-25T00:48:28.719Z,97754.84
2023-11-25T00:51:02.554Z,97746.84
2023-11-25T00:53:35.391Z,97762.59
2023-11-25T00:56:08.665Z,97756.34
2023-11-25T00:58:41.635Z,97752.78
2023-11-25T01:01:14.520Z,97755.34
2023-11-25T01:03:48.890Z,97751.94
2023-11-25T01:06:22.300Z,97760.63
2023-11-25T01:08:55.221Z,97764.97
2023-11-25T01:11:28.114Z,97768.63
2023-11-25T01:14:01.049Z,97777.47
2023-11-25T01:16:34.010Z,97777.53
2023-11-25T01:19:08.946Z,97771.59
2023-11-25T01:21:41.905Z,97788.47
2023-11-25T01:24:14.817Z,97784.38
2023-11-25T01:26:47.691Z,97784.53
2023-11-25T01:29:20.561Z,97788.97
2023-11-25T01:31:53.421Z,97790.66
2023-11-25T01:34:27.767Z,97788.00
2023-11-25T01:37:00.690Z,97797.72
2023-11-25T01:39:33.604Z,97796.88
2023-11-25T01:42:06.946Z,97790.84
2023-11-25T01:44:39.812Z,97797.13
2023-11-25T01:47:14.548Z,97797.22
2023-11-25T01:49:49.455Z,97804.28
2023-11-25T01:52:23.551Z,97806.13
2023-11-25T01:54:56.377Z,97803.75
2023-11-25T01:57:30.757Z,97816.09
2023-11-25T02:00:08.855Z,97817.28
2023-11-25T02:02:45.104Z,97818.38
2023-11-25T02:05:19.666Z,97819.47
2023-11-25T02:07:52.851Z,97819.53
2023-11-25T02:10:26.161Z,97819.53
2023-11-25T02:12:59.040Z,97830.00
2023-11-25T02:15:33.359Z,97825.69
2023-11-25T02:18:06.486Z,97828.41
2023-11-25T02:20:42.336Z,97830.28
2023-11-25T02:23:20.603Z,97831.28
2023-11-25T02:25:54.041Z,97829.56
2023-11-25T02:28:27.565Z,97822.63
2023-11-25T02:31:00.531Z,97828.97
2023-11-25T02:33:39.251Z,97834.47
2023-11-25T02:36:12.087Z,97835.50
2023-11-25T02:38:46.942Z,97838.22
2023-11-25T02:41:19.841Z,97840.00
2023-11-25T02:43:53.710Z,97854.13
2023-11-25T02:46:26.710Z,97855.88
2023-11-25T02:49:00.768Z,97860.22
2023-11-25T02:51:34.539Z,97864.66
2023-11-25T02:54:08.891Z,97869.06
2023-11-25T02:56:41.817Z,97867.22
2023-11-25T02:59:15.521Z,97863.72
2023-11-25T03:01:53.283Z,97866.41
2023-11-25T03:04:28.186Z,97868.28
2023-11-25T03:07:05.799Z,97870.09
2023-11-25T03:09:43.305Z,97864.97
2023-11-25T03:12:16.165Z,97870.47
2023-11-25T03:14:49.025Z,97874.03
2023-11-25T03:17:21.979Z,97876.81
2023-11-25T03:19:54.889Z,97874.41
2023-11-25T03:22:28.152Z,97887.59
2023-11-25T03:25:03.127Z,97884.97
2023-11-25T03:27:36.748Z,97885.91
2023-11-25T03:30:12.670Z,97893.00
2023-11-25T03:32:46.514Z,97893.97
2023-11-25T03:35:19.535Z,97899.31
2023-11-25T03:37:52.425Z,97902.78
2023-11-25T03:40:27.270Z,97894.88
2023-11-25T03:43:01.397Z,97901.16
2023-11-25T03:45:34.306Z,97903.78
2023-11-25T03:48:08.101Z,97905.66
2023-11-25T03:50:41.071Z,97900.38
2023-11-25T03:53:14.183Z,97905.72
2023-11-25T03:55:48.560Z,97916.41
2023-11-25T03:58:21.508Z,97914.72
2023-11-25T04:00:54.392Z,97908.59
2023-11-25T04:03:27.461Z,97919.91
2023-11-25T04:06:00.365Z,97919.03
2023-11-25T04:08:34.099Z,97922.78
2023-11-25T04:11:09.317Z,97925.72
2023-11-25T04:13:42.537Z,97923.31
2023-11-25T04:16:16.275Z,97921.59
2023-11-25T04:18:49.160Z,97930.44
2023-11-25T04:21:24.134Z,97925.25
2023-11-25T04:23:57.358Z,97934.06
2023-11-25T04:26:32.181Z,97931.44
2023-11-25T04:29:05.710Z,97937.69
2023-11-25T04:31:38.735Z,97944.59
2023-11-25T04:34:11.632Z,97941.13
2023-11-25T04:36:44.742Z,97941.13
2023-11-25T04:39:17.723Z,97954.97
2023-11-25T04:41:51.944Z,97959.41
2023-11-25T04:44:25.000Z,97957.59
2023-11-25T04:46:58.113Z,97960.16
2023-11-25T04:49:31.049Z,97968.91
2023-11-25T04:52:05.662Z,97964.66
2023-11-25T04:54:39.348Z,97966.56
2023-11-25T04:57:13.604Z,97971.13
2023-11-25T04:59:47.455Z,97976.63
2023-11-25T05:02:21.560Z,97974.47
2023-11-25T05:04:54.492Z,97986.44
2023-11-25T05:07:30.182Z,97992.63
2023-11-25T05:10:04.217Z,97986.59
2023-11-25T05:12:38.800Z,97990.41
2023-11-25T05:15:16.159Z,97999.69
2023-11-25T05:17:49.115Z,98010.22
2023-11-25T05:20:28.112Z,98004.94
2023-11-25T05:23:00.986Z,98017.97
2023-11-25T05:25:33.942Z,98022.31
2023-11-25T05:28:08.311Z,98024.00
2023-11-25T05:30:42.653Z,98031.00
2023-11-25T05:33:15.549Z,98042.31
2023-11-25T05:35:48.410Z,98033.50
2023-11-25T05:38:25.011Z,98049.22
2023-11-25T05:40:58.514Z,98060.44
2023-11-25T05:43:32.756Z,98063.09
2023-11-25T05:46:06.365Z,98068.28
2023-11-25T05:48:42.219Z,98073.47
2023-11-25T05:51:16.304Z,98076.94
2023-11-25T05:53:49.328Z,98081.22
2023-11-25T05:56:25.314Z,98090.78
2023-11-25T05:59:02.511Z,98098.69
2023-11-25T06:01:35.603Z,98104.78
2023-11-25T06:04:08.879Z,98107.34
2023-11-25T06:06:41.817Z,98110.75
2023-11-25T06:09:15.892Z,98112.56
2023-11-25T06:11:54.313Z,98124.94
2023-11-25T06:14:29.382Z,98119.81
2023-11-25T06:17:04.154Z,98126.84
2023-11-25T06:19:37.661Z,98127.78
2023-11-25T06:22:10.599Z,98135.75
2023-11-25T06:24:44.234Z,98132.25
2023-11-25T06:27:19.880Z,98127.06
2023-11-25T06:29:54.142Z,98128.22
2023-11-25T06:32:28.660Z,98134.44
2023-11-25T06:35:01.730Z,98135.53
2023-11-25T06:37:37.310Z,98144.34
2023-11-25T06:40:13.648Z,98146.13
2023-11-25T06:42:46.653Z,98150.47
2023-11-25T06:45:22.760Z,98149.53
2023-11-25T06:47:56.183Z,98152.19
2023-11-25T06:50:29.702Z,98165.34
2023-11-25T06:53:02.850Z,98162.63
2023-11-25T06:55:36.788Z,98172.25
2023-11-25T06:58:12.558Z,98168.53
2023-11-25T07:00:49.249Z,98171.97
2023-11-25T07:03:22.337Z,98171.81
2023-11-25T07:05:58.312Z,98179.59
2023-11-25T07:08:34.195Z,98178.69
2023-11-25T07:11:11.347Z,98176.03
2023-11-25T07:13:45.164Z,98176.03
2023-11-25T07:16:19.477Z,98189.22
2023-11-25T07:18:52.350Z,98196.97
2023-11-25T07:21:25.519Z,98190.78
2023-11-25T07:23:58.401Z,98189.78
2023-11-25T07:26:31.270Z,98198.47
2023-11-25T07:29:05.883Z,98209.06
2023-11-25T07:31:40.287Z,98218.63
2023-11-25T07:34:13.411Z,98223.94
2023-11-25T07:36:47.817Z,98221.53
2023-11-25T07:39:20.876Z,98235.69
2023-11-25T07:41:55.081Z,98236.47
2023-11-25T07:44:31.531Z,98241.69
2023-11-25T07:47:07.149Z,98248.81
2023-11-25T07:49:40.061Z,98247.28
2023-11-25T07:52:13.033Z,98251.56
2023-11-25T07:54:46.489Z,98254.06
2023-11-25T07:57:19.679Z,98256.78
2023-11-25T07:59:52.639Z,98256.34
2023-11-25T08:02:27.186Z,98259.72
2023-11-25T08:05:00.274Z,98260.16
2023-11-25T08:07:33.295Z,98264.50
2023-11-25T08:10:08.864Z,98267.66
2023-11-25T08:12:41.770Z,98264.19
2023-11-25T08:15:15.373Z,98267.66
2023-11-25T08:17:49.832Z,98268.50
2023-11-25T08:20:23.131Z,98275.66
2023-11-25T08:22:56.145Z,98274.84
2023-11-25T08:25:29.126Z,98279.03
2023-11-25T08:28:02.099Z,98277.81
2023-11-25T08:30:35.789Z,98287.53
2023-11-25T08:33:10.019Z,98286.03
2023-11-25T08:35:43.983Z,98284.00
2023-11-25T08:38:16.871Z,98284.75
2023-11-25T08:40:49.986Z,98285.78
2023-11-25T08:43:23.467Z,98283.31
2023-11-25T08:45:56.401Z,98295.69
2023-11-25T08:48:31.153Z,98302.28
2023-11-25T08:51:08.915Z,98298.56
2023-11-25T08:53:45.526Z,98297.09
2023-11-25T08:56:18.742Z,98301.97
2023-11-25T08:58:59.029Z,98296.47
2023-11-25T09:01:43.567Z,98303.22
2023-11-25T09:04:20.809Z,98306.31
2023-11-25T09:06:56.519Z,98312.03
2023-11-25T09:09:29.454Z,98303.56
2023-11-25T09:12:04.144Z,98309.19
2023-11-25T09:14:37.724Z,98318.31
2023-11-25T09:17:12.677Z,98315.19
2023-11-25T09:19:46.952Z,98324.41
2023-11-25T09:22:19.961Z,98327.47
2023-11-25T09:24:52.857Z,98338.38
2023-11-25T09:27:25.948Z,98337.59
2023-11-25T09:29:59.542Z,98332.38
2023-11-25T09:32:32.407Z,98338.38
2023-11-25T09:35:08.086Z,98329.59
2023-11-25T09:37:41.294Z,98331.53
2023-11-25T09:40:16.723Z,98337.94
2023-11-25T09:42:50.154Z,98337.22
2023-11-25T09:45:29.863Z,98340.84
2023-11-25T09:48:04.414Z,98339.28
2023-11-25T09:50:39.128Z,98336.66
2023-11-25T09:53:20.216Z,98338.19
2023-11-25T09:56:02.899Z,98341.78
2023-11-25T09:58:37.675Z,98341.31
2023-11-25T10:01:13.625Z,98336.47
2023-11-25T10:03:49.291Z,98346.72
2023-11-25T10:06:23.690Z,98352.50
2023-11-25T10:08:56.602Z,98352.75
2023-11-25T10:11:33.736Z,98344.34
2023-11-25T10:14:11.268Z,98345.44
2023-11-25T10:16:45.375Z,98345.56
2023-11-25T10:19:23.623Z,98351.84
2023-11-25T10:21:59.238Z,98355.38
2023-11-25T10:24:32.205Z,98350.91
2023-11-25T10:27:06.354Z,98352.50
2023-11-25T10:29:41.155Z,98358.47
2023-11-25T10:32:14.006Z,98354.88
2023-11-25T10:34:46.909Z,98358.28
2023-11-25T10:37:22.307Z,98361.84
2023-11-25T10:39:56.342Z,98361.75
2023-11-25T10:42:30.942Z,98374.88
2023-11-25T10:45:06.123Z,98372.09
2023-11-25T10:47:40.192Z,98379.09
2023-11-25T10:50:14.624Z,98375.44
2023-11-25T10:52:53.427Z,98378.72
2023-11-25T10:55:28.187Z,98379.38
2023-11-25T10:58:02.233Z,98391.28
2023-11-25T11:00:36.077Z,98388.38
2023-11-25T11:03:11.481Z,98377.63
2023-11-25T11:05:51.616Z,98388.13
2023-11-25T11:08:32.838Z,98383.56
2023-11-25T11:11:12.078Z,98386.81
2023-11-25T11:13:51.406Z,98390.94
2023-11-25T11:16:33.987Z,98381.72
2023-11-25T11:19:08.682Z,98379.66
2023-11-25T11:22:03.177Z,98386.47
2023-11-25T11:24:49.928Z,98380.41
2023-11-25T11:27:34.826Z,98392.81
2023-11-25T11:30:18.956Z,98397.97
2023-11-25T11:32:56.826Z,98397.09
2023-11-25T11:35:43.141Z,98403.09
2023-11-25T11:38:31.289Z,98389.78
2023-11-25T11:41:28.662Z,98393.13
2023-11-25T11:44:05.950Z,98391.69
2023-11-25T11:46:40.563Z,98406.72
2023-11-25T11:49:20.013Z,98400.75
2023-11-25T11:52:03.068Z,98403.38
2023-11-25T11:54:39.923Z,98412.25
2023-11-25T11:57:19.166Z,98410.78
2023-11-25T12:00:04.498Z,98405.56
2023-11-25T12:02:41.908Z,98407.31
2023-11-25T12:05:18.520Z,98404.63
2023-11-25T12:07:56.056Z,98410.66
2023-11-25T12:10:29.012Z,98406.09
2023-11-25T12:13:04.173Z,98401.59
2023-11-25T12:15:37.709Z,98393.66
2023-11-25T12:18:16.033Z,98404.16
2023-11-25T12:20:49.032Z,98403.25
2023-11-25T12:23:24.932Z,98400.59
2023-11-25T12:26:01.200Z,98402.38
2023-11-25T12:28:42.982Z,98399.72
2023-11-25T12:31:16.181Z,98401.44
2023-11-25T12:33:49.545Z,98398.69
2023-11-25T12:36:27.322Z,98398.69
2023-11-25T12:39:03.225Z,98403.81
2023-11-25T12:41:41.174Z,98399.31
2023-11-25T12:44:17.968Z,98393.97
2023-11-25T12:47:05.649Z,98397.38
2023-11-25T12:49:38.676Z,98403.75
2023-11-25T12:52:21.268Z,98401.94
2023-11-25T12:54:54.375Z,98399.38
2023-11-25T12:57:30.510Z,98403.81
2023-11-25T13:00:12.208Z,98403.75
2023-11-25T13:02:47.249Z,98402.91
2023-11-25T13:05:25.033Z,98392.28
2023-11-25T13:07:58.370Z,98407.28
2023-11-25T13:10:31.276Z,98401.19
2023-11-25T13:13:05.713Z,98399.38
2023-11-25T13:15:39.956Z,98408.94
2023-11-25T13:18:13.968Z,98416.78
2023-11-25T13:20:46.661Z,98416.38
2023-11-25T13:23:21.149Z,98418.66
2023-11-25T13:25:54.405Z,98419.50
2023-11-25T13:28:27.531Z,98429.28
2023-11-25T13:31:01.908Z,98418.41
2023-11-25T13:33:35.637Z,98437.13
2023-11-25T13:36:09.318Z,98427.22
2023-11-25T13:38:42.275Z,98448.34
2023-11-25T13:41:15.703Z,98442.31
2023-11-25T13:43:48.774Z,98451.13
2023-11-25T13:46:23.641Z,98448.56
2023-11-25T13:48:56.748Z,98461.75
2023-11-25T13:51:29.820Z,98457.44
2023-11-25T13:54:03.976Z,98463.94
2023-11-25T13:56:36.868Z,98457.22
2023-11-25T13:59:12.950Z,98470.72
2023-11-25T14:01:48.366Z,98473.69
2023-11-25T14:04:25.023Z,98476.50
2023-11-25T14:07:00.589Z,98463.38
2023-11-25T14:09:33.858Z,98474.84
2023-11-25T14:12:08.402Z,98466.16
2023-11-25T14:14:41.448Z,98475.03
2023-11-25T14:17:18.358Z,98472.41
2023-11-25T14:19:52.380Z,98479.59
2023-11-25T14:22:25.060Z,98481.78
2023-11-25T14:24:58.384Z,98478.06
2023-11-25T14:27:33.564Z,98480.97
2023-11-25T14:30:09.612Z,98482.09
2023-11-25T14:32:46.033Z,98480.50
2023-11-25T14:35:19.317Z,98481.38
2023-11-25T14:37:54.561Z,98483.00
2023-11-25T14:40:30.563Z,98481.25
2023-11-25T14:43:03.825Z,98483.78
2023-11-25T14:45:36.795Z,98486.44
2023-11-25T14:48:12.029Z,98488.22
2023-11-25T14:50:45.988Z,98484.72
2023-11-25T14:53:20.367Z,98490.78
2023-11-25T14:55:53.529Z,98483.72
2023-11-25T14:58:26.567Z,98479.31
2023-11-25T15:00:59.467Z,98496.06
2023-11-25T15:03:33.861Z,98490.78
2023-11-25T15:06:08.914Z,98488.22
2023-11-25T15:08:43.315Z,98487.38
2023-11-25T15:11:16.315Z,98490.91
2023-11-25T15:13:49.313Z,98495.34
2023-11-25T15:16:22.283Z,98507.66
2023-11-25T15:18:57.289Z,98499.00
2023-11-25T15:21:30.237Z,98507.91
2023-11-25T15:24:03.119Z,98505.41
2023-11-25T15:26:36.393Z,98505.53
2023-11-25T15:29:09.365Z,98498.53
2023-11-25T15:31:42.484Z,98502.97
2023-11-25T15:34:17.816Z,98501.25
2023-11-25T15:36:51.542Z,98504.66
2023-11-25T15:39:28.235Z,98509.06
2023-11-25T15:42:01.311Z,98509.00
2023-11-25T15:44:34.241Z,98510.75
2023-11-25T15:47:07.512Z,98511.47
2023-11-25T15:49:42.393Z,98508.03
2023-11-25T15:52:15.432Z,98516.00
2023-11-25T15:54:48.429Z,98519.50
2023-11-25T15:57:21.741Z,98520.41
2023-11-25T15:59:55.219Z,98523.03
2023-11-25T16:02:28.233Z,98519.56
2023-11-25T16:05:02.682Z,98528.31
2023-11-25T16:07:35.779Z,98533.59
2023-11-25T16:10:11.403Z,98535.38
2023-11-25T16:12:44.782Z,98538.91
2023-11-25T16:15:18.389Z,98536.28
2023-11-25T16:17:51.381Z,98538.91
2023-11-25T16:20:25.720Z,98542.44
2023-11-25T16:22:58.811Z,98536.38
2023-11-25T16:25:31.765Z,98539.84
2023-11-25T16:28:05.394Z,98547.69
2023-11-25T16:30:38.298Z,98551.13
2023-11-25T16:33:11.516Z,98556.34
2023-11-25T16:35:45.854Z,98558.97
2023-11-25T16:38:21.007Z,98555.47
2023-11-25T16:40:54.310Z,98557.13
2023-11-25T16:43:27.229Z,98557.13
2023-11-25T16:46:01.340Z,98562.50
2023-11-25T16:48:43.770Z,98552.97
2023-11-25T16:51:26.040Z,98559.16
2023-11-25T16:53:58.995Z,98564.41
2023-11-25T16:56:31.880Z,98561.78
2023-11-25T16:59:06.243Z,98562.72
2023-11-25T17:01:41.659Z,98570.63
2023-11-25T17:04:15.808Z,98577.66
2023-11-25T17:06:50.245Z,98580.28
2023-11-25T17:09:26.057Z,98581.16
2023-11-25T17:11:58.956Z,98576.69
2023-11-25T17:14:31.918Z,98579.25
2023-11-25T17:17:09.900Z,98570.53
2023-11-25T17:19:42.976Z,98583.03
2023-11-25T17:22:17.289Z,98587.66
2023-11-25T17:24:50.251Z,98578.34
2023-11-25T17:27:25.493Z,98578.69
2023-11-25T17:29:58.555Z,98584.38
2023-11-25T17:32:31.516Z,98567.22
2023-11-25T17:35:05.188Z,98578.03
2023-11-25T17:37:39.672Z,98574.69
2023-11-25T17:40:13.792Z,98579.22
2023-11-25T17:42:47.352Z,98583.72
2023-11-25T17:45:20.252Z,98573.97
2023-11-25T17:47:53.440Z,98581.75
2023-11-25T17:50:26.550Z,98580.84
2023-11-25T17:53:09.517Z,98579.13
2023-11-25T17:55:45.899Z,98585.19
2023-11-25T17:58:18.893Z,98587.69
2023-11-25T18:00:54.406Z,98588.41
2023-11-25T18:03:28.768Z,98595.25
2023-11-25T18:06:01.704Z,98586.41
2023-11-25T18:08:36.016Z,98586.34
2023-11-25T18:11:08.961Z,98580.06
2023-11-25T18:13:42.045Z,98583.66
2023-11-25T18:16:16.956Z,98581.00
2023-11-25T18:18:50.122Z,98582.75
2023-11-25T18:21:23.245Z,98589.75
2023-11-25T18:23:57.521Z,98592.41
2023-11-25T18:26:30.386Z,98588.91
2023-11-25T18:29:03.568Z,98599.38
2023-11-25T18:31:36.516Z,98590.56
2023-11-25T18:34:09.981Z,98591.38
2023-11-25T18:36:42.895Z,98596.53
2023-11-25T18:39:17.162Z,98597.31
2023-11-25T18:41:50.161Z,98589.41
2023-11-25T18:44:23.101Z,98580.78
2023-11-25T18:46:56.035Z,98599.50
2023-11-25T18:49:28.956Z,98600.69
2023-11-25T18:52:02.649Z,98601.91
2023-11-25T18:54:36.972Z,98613.63
2023-11-25T18:57:10.057Z,98617.41
2023-11-25T18:59:46.509Z,98613.31
2023-11-25T19:02:20.447Z,98614.53
2023-11-25T19:04:53.267Z,98619.59
2023-11-25T19:07:26.214Z,98619.31
2023-11-25T19:10:00.494Z,98626.56
2023-11-25T19:12:35.665Z,98632.03
2023-11-25T19:15:09.020Z,98637.50
2023-11-25T19:17:42.015Z,98637.72
2023-11-25T19:20:15.260Z,98637.81
2023-11-25T19:22:48.226Z,98639.69
2023-11-25T19:25:22.625Z,98646.69
2023-11-25T19:27:56.380Z,98653.66
2023-11-25T19:30:30.027Z,98656.22
2023-11-25T19:33:03.803Z,98663.22
2023-11-25T19:35:37.450Z,98660.59
2023-11-25T19:38:12.493Z,98665.84
2023-11-25T19:40:48.685Z,98667.59
2023-11-25T19:43:22.522Z,98672.81
2023-11-25T19:45:55.557Z,98676.22
2023-11-25T19:48:28.659Z,98676.91
2023-11-25T19:51:01.706Z,98693.44
2023-11-25T19:53:49.584Z,98690.72
2023-11-25T19:56:25.930Z,98690.56
2023-11-25T19:58:58.999Z,98693.84
2023-11-25T20:01:31.981Z,98684.00
2023-11-25T20:04:05.427Z,98686.44
2023-11-25T20:06:38.738Z,98679.22
2023-11-25T20:09:12.720Z,98674.75
2023-11-25T20:11:47.585Z,98686.00
2023-11-25T20:14:20.688Z,98682.28
2023-11-25T20:16:53.949Z,98672.53
2023-11-25T20:19:28.991Z,98673.38
2023-11-25T20:22:02.209Z,98666.31
2023-11-25T20:24:35.309Z,98668.84
2023-11-25T20:27:09.656Z,98676.69
2023-11-25T20:29:43.058Z,98670.53
2023-11-25T20:32:19.240Z,98677.38
2023-11-25T20:34:52.325Z,98679.16
2023-11-25T20:37:25.368Z,98679.97
2023-11-25T20:39:59.534Z,98687.75
2023-11-25T20:42:33.944Z,98690.34
2023-11-25T20:45:08.230Z,98692.06
2023-11-25T20:47:41.252Z,98687.69
2023-11-25T20:50:14.466Z,98688.69
2023-11-25T20:52:47.949Z,98694.91
2023-11-25T20:55:21.453Z,98694.91
2023-11-25T20:57:56.600Z,98696.81
2023-11-25T21:00:30.253Z,98697.66
2023-11-25T21:03:04.015Z,98702.81
2023-11-25T21:05:36.983Z,98696.19
2023-11-25T21:08:12.848Z,98697.38
2023-11-25T21:10:45.907Z,98707.91
2023-11-25T21:13:20.418Z,98710.50
2023-11-25T21:15:53.739Z,98701.69
2023-11-25T21:18:26.731Z,98699.91
2023-11-25T21:20:59.948Z,98706.91
2023-11-25T21:23:32.983Z,98706.91
2023-11-25T21:26:07.254Z,98713.88
2023-11-25T21:28:42.773Z,98713.91
2023-11-25T21:31:15.921Z,98713.97
2023-11-25T21:33:48.982Z,98715.81
2023-11-25T21:36:21.838Z,98707.97
2023-11-25T21:38:54.908Z,98707.22
2023-11-25T21:41:27.871Z,98707.38
2023-11-25T21:44:02.154Z,98711.06
2023-11-25T21:46:35.113Z,98705.19
2023-11-25T21:49:08.179Z,98707.22
2023-11-25T21:51:41.052Z,98719.84
2023-11-25T21:54:14.131Z,98721.94
2023-11-25T21:56:48.202Z,98725.72
2023-11-25T21:59:22.331Z,98730.91
2023-11-25T22:01:55.499Z,98730.75
2023-11-25T22:04:28.622Z,98735.50
2023-11-25T22:07:03.836Z,98734.94
2023-11-25T22:09:37.565Z,98742.25
2023-11-25T22:12:10.556Z,98743.44
2023-11-25T22:14:44.989Z,98747.16
2023-11-25T22:17:17.881Z,98745.69
2023-11-25T22:19:50.902Z,98744.09
2023-11-25T22:22:24.057Z,98746.94
2023-11-25T22:24:57.268Z,98748.88
2023-11-25T22:27:32.639Z,98746.44
2023-11-25T22:30:09.141Z,98751.00
2023-11-25T22:32:42.903Z,98751.16
2023-11-25T22:35:17.528Z,98754.81
2023-11-25T22:37:50.893Z,98764.50
2023-11-25T22:40:24.096Z,98776.00
2023-11-25T22:42:57.088Z,98770.84
2023-11-25T22:45:33.053Z,98769.22
2023-11-25T22:48:06.388Z,98774.56
2023-11-25T22:50:39.257Z,98772.06
2023-11-25T22:53:12.406Z,98771.25
2023-11-25T22:55:45.482Z,98770.47
2023-11-25T22:58:18.431Z,98775.84
2023-11-25T23:01:05.613Z,98769.78
2023-11-25T23:03:38.750Z,98766.31
2023-11-25T23:06:11.882Z,98771.63
2023-11-25T23:08:47.775Z,98773.44
2023-11-25T23:11:21.102Z,98775.34
2023-11-25T23:13:56.698Z,98774.53
2023-11-25T23:16:31.088Z,98780.69
2023-11-25T23:19:04.114Z,98785.13
2023-11-25T23:21:36.998Z,98784.22
2023-11-25T23:24:10.177Z,98785.16
2023-11-25T23:26:43.202Z,98788.63
2023-11-25T23:29:16.533Z,98794.84
2023-11-25T23:31:50.775Z,98794.91
2023-11-25T23:34:23.863Z,98794.97
2023-11-25T23:36:56.924Z,98785.34
2023-11-25T23:39:30.450Z,98788.91
2023-11-25T23:42:03.744Z,98791.56
2023-11-25T23:44:36.706Z,98796.84
2023-11-25T23:47:11.048Z,98793.44
2023-11-25T23:49:44.064Z,98796.09
2023-11-25T23:52:17.614Z,98799.69
2023-11-25T23:54:50.872Z,98806.69
2023-11-25T23:57:23.773Z,98805.06
2023-11-25T23:59:56.904Z,98808.56
